Time;durP1;ratioP1;P1;durP2;ratioP2;P2;SDS_P1;SDS_P2;PMS_P1;PMS_P2;Temp;Humidity;BMP_temperature;BMP_pressure;BME280_temperature;BME280_humidity;BME280_pressure;Samples;Min_cycle;Max_cycle;Signal;HPM_P1;HPM_P2
2024/02/07 00:00:32;;;;;;;;;;;;;;;;;;4954307;28;20263;-51
2024/02/07 00:02:58;;;;;;;101.95;63.13;;;;;;;;;;4953862;28;19957;-49
2024/02/07 00:05:24;;;;;;;92.53;60.80;;;;;;;;;;4953998;28;20046;-48
2024/02/07 00:07:51;;;;;;;103.18;63.90;;;;;;;;;;4953987;29;20087;-48
2024/02/07 00:10:17;;;;;;;99.82;65.60;;;;;;;;;;4952495;28;20035;-49
2024/02/07 00:12:43;;;;;;;90.68;61.25;;;;;;;;;;4951253;28;20087;-52
2024/02/07 00:15:09;;;;;;;92.20;60.50;;;;;;;;;;4953581;29;20081;-51
2024/02/07 00:17:35;;;;;;;103.10;63.60;;;;;;;;;;4953653;28;20101;-50
2024/02/07 00:20:02;;;;;;;97.13;60.38;;;;;;;;;;4953637;28;20023;-47
2024/02/07 00:22:28;;;;;;;97.82;63.50;;;;;;;;;;4952257;29;20067;-49
2024/02/07 00:24:54;;;;;;;93.18;60.72;;;;;;;;;;4953429;28;20027;-46
2024/02/07 00:27:21;;;;;;;99.15;64.82;;;;;;;;;;4953275;28;20015;-52
2024/02/07 00:29:47;;;;;;;98.97;61.83;;;;;;;;;;4953696;28;20109;-49
2024/02/07 00:32:13;;;;;;;96.45;61.10;;;;;;;;;;4953217;28;20041;-49
2024/02/07 00:34:39;;;;;;;98.78;61.25;;;;;;;;;;4953634;28;20035;-49
2024/02/07 00:37:05;;;;;;;99.80;65.20;;;;;;;;;;4951594;28;20110;-48
2024/02/07 00:39:31;;;;;;;104.45;63.00;;;;;;;;;;4975080;28;20035;-50
2024/02/07 00:41:58;;;;;;;94.43;62.47;;;;;;;;;;4970571;28;20032;-50
2024/02/07 00:44:24;;;;;;;102.85;63.15;;;;;;;;;;4953003;29;20114;-48
2024/02/07 00:46:50;;;;;;;107.15;64.35;;;;;;;;;;4953119;28;20027;-53
2024/02/07 00:49:16;;;;;;;106.15;64.72;;;;;;;;;;4952740;28;20083;-51
2024/02/07 00:51:42;;;;;;;102.15;62.50;;;;;;;;;;4953191;28;20110;-50
2024/02/07 00:54:08;;;;;;;106.43;63.03;;;;;;;;;;4952782;28;20027;-47
2024/02/07 00:56:35;;;;;;;111.60;69.28;;;;;;;;;;4983164;28;20608;-46
2024/02/07 00:59:02;;;;;;;106.68;64.95;;;;;;;;;;4953173;29;20065;-49
2024/02/07 01:01:29;;;;;;;117.00;65.43;;;;;;;;;;4953223;28;20031;-48
2024/02/07 01:03:56;;;;;;;97.25;60.05;;;;;;;;;;4953012;28;20037;-48
2024/02/07 01:06:22;;;;;;;94.50;59.97;;;;;;;;;;4952869;28;20027;-49
2024/02/07 01:08:48;;;;;;;88.50;56.50;;;;;;;;;;4953028;28;20392;-49
2024/02/07 01:11:15;;;;;;;97.57;63.60;;;;;;;;;;4951609;29;20463;-49
2024/02/07 01:13:41;;;;;;;98.63;63.30;;;;;;;;;;4952780;28;20027;-49
2024/02/07 01:16:08;;;;;;;96.30;58.97;;;;;;;;;;4953045;28;20302;-47
2024/02/07 01:18:35;;;;;;;102.32;62.80;;;;;;;;;;4952978;28;20100;-48
2024/02/07 01:21:01;;;;;;;106.53;64.35;;;;;;;;;;4952532;28;20054;-49
2024/02/07 01:23:28;;;;;;;100.20;61.53;;;;;;;;;;4970091;28;20158;-49
2024/02/07 01:25:54;;;;;;;97.78;61.58;;;;;;;;;;4956281;29;20032;-50
2024/02/07 01:28:20;;;;;;;103.38;64.10;;;;;;;;;;4956927;28;20053;-49
2024/02/07 01:30:46;;;;;;;103.25;66.00;;;;;;;;;;4955077;29;20058;-48
2024/02/07 01:33:12;;;;;;;99.10;61.90;;;;;;;;;;4956067;28;20037;-51
2024/02/07 01:35:39;;;;;;;99.47;62.33;;;;;;;;;;4956500;28;20282;-51
2024/02/07 01:38:07;;;;;;;101.65;63.08;;;;;;;;;;4956319;28;20035;-48
2024/02/07 01:40:43;;;;;;;107.03;62.45;;;;;;;;;;4956727;29;20090;-48
2024/02/07 01:43:12;;;;;;;104.20;61.40;;;;;;;;;;4938822;29;20031;-50
2024/02/07 01:45:39;;;;;;;106.53;65.22;;;;;;;;;;4956373;28;20481;-49
2024/02/07 01:48:08;;;;;;;95.80;60.88;;;;;;;;;;4956494;29;20031;-50
2024/02/07 01:50:39;;;;;;;102.75;61.40;;;;;;;;;;4955014;28;20043;-49
2024/02/07 01:53:06;;;;;;;104.88;63.03;;;;;;;;;;4955694;29;20484;-48
2024/02/07 01:55:32;;;;;;;100.05;61.67;;;;;;;;;;4951892;29;20038;-48
2024/02/07 01:58:01;;;;;;;102.57;61.72;;;;;;;;;;4954847;29;20031;-47
2024/02/07 02:00:28;;;;;;;97.53;62.65;;;;;;;;;;4955939;28;20035;-50
2024/02/07 02:02:54;;;;;;;111.77;65.50;;;;;;;;;;4955867;28;20027;-48
2024/02/07 02:05:20;;;;;;;96.13;62.10;;;;;;;;;;4954977;29;20309;-47
2024/02/07 02:07:47;;;;;;;105.37;62.63;;;;;;;;;;4956092;28;20447;-47
2024/02/07 02:10:14;;;;;;;108.15;65.05;;;;;;;;;;4956064;28;20263;-48
2024/02/07 02:12:44;;;;;;;101.88;62.65;;;;;;;;;;4956161;29;20027;-47
2024/02/07 02:15:10;;;;;;;102.38;63.40;;;;;;;;;;4955695;28;20016;-47
2024/02/07 02:17:36;;;;;;;103.03;62.50;;;;;;;;;;4956055;28;20043;-49
2024/02/07 02:20:07;;;;;;;106.40;65.90;;;;;;;;;;4957251;28;20027;-47
2024/02/07 02:22:36;;;;;;;101.05;63.95;;;;;;;;;;4949454;29;20397;-48
2024/02/07 02:25:05;;;;;;;103.80;64.15;;;;;;;;;;4954398;29;20035;-47
2024/02/07 02:27:45;;;;;;;107.40;65.50;;;;;;;;;;4955511;28;20019;-49
2024/02/07 02:30:12;;;;;;;100.57;64.97;;;;;;;;;;4955626;29;20027;-47
2024/02/07 02:32:39;;;;;;;105.88;65.13;;;;;;;;;;4955715;28;20058;-50
2024/02/07 02:35:07;;;;;;;100.15;60.40;;;;;;;;;;4954214;28;20019;-51
2024/02/07 02:37:34;;;;;;;102.50;61.92;;;;;;;;;;4955640;28;20518;-47
2024/02/07 02:40:00;;;;;;;97.95;63.15;;;;;;;;;;4955293;29;20034;-52
2024/02/07 02:42:26;;;;;;;98.60;57.20;;;;;;;;;;4955639;28;20106;-47
2024/02/07 02:44:52;;;;;;;99.55;59.13;;;;;;;;;;4955611;28;20031;-50
2024/02/07 02:47:18;;;;;;;94.90;59.80;;;;;;;;;;4955090;28;20544;-47
2024/02/07 02:49:46;;;;;;;95.03;58.20;;;;;;;;;;4955215;28;20114;-48
2024/02/07 02:52:13;;;;;;;94.22;58.90;;;;;;;;;;4955419;28;20535;-48
2024/02/07 02:54:41;;;;;;;99.13;63.80;;;;;;;;;;4955122;28;20028;-47
2024/02/07 02:57:08;;;;;;;96.10;61.55;;;;;;;;;;4954081;28;20116;-51
2024/02/07 02:59:35;;;;;;;97.15;59.92;;;;;;;;;;4954998;29;20042;-48
2024/02/07 03:02:09;;;;;;;92.00;60.90;;;;;;;;;;4955243;28;20114;-48
2024/02/07 03:04:41;;;;;;;98.47;60.70;;;;;;;;;;4938152;29;20027;-47
2024/02/07 03:09:54;;;;;;;97.78;56.10;;;;;;;;;;4971020;28;20479;-48
2024/02/07 03:12:20;;;;;;;96.68;60.97;;;;;;;;;;4955074;28;20086;-47
2024/02/07 03:14:46;;;;;;;88.40;55.27;;;;;;;;;;4954902;28;20026;-49
2024/02/07 03:17:13;;;;;;;91.60;56.55;;;;;;;;;;4953407;28;20266;-47
2024/02/07 03:19:39;;;;;;;93.75;59.88;;;;;;;;;;4954840;28;20070;-47
2024/02/07 03:22:06;;;;;;;96.78;61.30;;;;;;;;;;4953529;28;20473;-49
2024/02/07 03:24:33;;;;;;;90.13;55.80;;;;;;;;;;4969723;28;20030;-48
2024/02/07 03:26:59;;;;;;;93.15;58.35;;;;;;;;;;4953019;29;20031;-49
2024/02/07 03:29:25;;;;;;;95.57;56.30;;;;;;;;;;4953509;28;20121;-47
2024/02/07 03:31:53;;;;;;;96.87;56.40;;;;;;;;;;4953889;28;20031;-49
2024/02/07 03:34:20;;;;;;;91.60;53.33;;;;;;;;;;4954357;29;20318;-48
2024/02/07 03:36:47;;;;;;;89.80;56.20;;;;;;;;;;4954262;29;20500;-48
2024/02/07 03:39:13;;;;;;;82.78;54.15;;;;;;;;;;4954492;28;20511;-49
2024/02/07 03:41:41;;;;;;;89.05;53.28;;;;;;;;;;4954666;28;20024;-48
2024/02/07 03:44:12;;;;;;;81.40;50.22;;;;;;;;;;4954682;28;20090;-50
2024/02/07 03:46:44;;;;;;;79.10;48.97;;;;;;;;;;4954342;28;20054;-49
2024/02/07 03:49:11;;;;;;;87.70;52.33;;;;;;;;;;4953000;29;20478;-48
2024/02/07 03:51:38;;;;;;;80.35;49.70;;;;;;;;;;4954362;28;20397;-49
2024/02/07 03:54:10;;;;;;;81.78;48.90;;;;;;;;;;4953701;29;20027;-51
2024/02/07 03:56:36;;;;;;;84.70;50.22;;;;;;;;;;4954208;28;20035;-49
2024/02/07 03:59:03;;;;;;;85.07;50.20;;;;;;;;;;4952959;28;20027;-48
2024/02/07 04:01:29;;;;;;;75.30;48.10;;;;;;;;;;4953594;28;20027;-48
2024/02/07 04:03:57;;;;;;;75.93;46.55;;;;;;;;;;4953739;28;20027;-50
2024/02/07 04:06:23;;;;;;;76.55;45.63;;;;;;;;;;4953820;28;20050;-47
2024/02/07 04:08:49;;;;;;;73.27;47.10;;;;;;;;;;4968608;28;20035;-50
2024/02/07 05:16:39;;;;;;;97.35;59.58;;;;;;;;;;4956604;29;20094;-49
2024/02/07 05:19:05;;;;;;;96.78;56.95;;;;;;;;;;4957182;28;20392;-49
2024/02/07 05:21:31;;;;;;;103.35;60.30;;;;;;;;;;4955192;28;20046;-48
2024/02/07 05:23:58;;;;;;;111.22;59.80;;;;;;;;;;4956662;28;20023;-48
2024/02/07 05:26:24;;;;;;;121.30;60.75;;;;;;;;;;4956735;28;20027;-47
2024/02/07 05:28:50;;;;;;;101.65;60.33;;;;;;;;;;4957226;28;20102;-48
2024/02/07 05:31:17;;;;;;;103.97;61.70;;;;;;;;;;4957079;29;20027;-47
2024/02/07 05:33:43;;;;;;;106.03;60.28;;;;;;;;;;4956871;29;20615;-49
2024/02/07 05:36:09;;;;;;;109.88;63.42;;;;;;;;;;4956879;29;20035;-49
2024/02/07 05:38:35;;;;;;;109.78;63.60;;;;;;;;;;4957096;29;20039;-48
2024/02/07 05:41:01;;;;;;;104.05;63.83;;;;;;;;;;4957026;29;20027;-48
2024/02/07 05:43:28;;;;;;;108.32;66.60;;;;;;;;;;4956785;29;20065;-48
2024/02/07 05:45:56;;;;;;;123.37;65.43;;;;;;;;;;4971624;28;20547;-51
2024/02/07 05:48:23;;;;;;;108.05;63.15;;;;;;;;;;4956571;28;20043;-49
2024/02/07 05:50:49;;;;;;;114.38;66.10;;;;;;;;;;4956824;28;20476;-48
2024/02/07 05:53:15;;;;;;;115.90;67.82;;;;;;;;;;4955489;28;20046;-49
2024/02/07 05:55:44;;;;;;;109.43;65.28;;;;;;;;;;4955253;29;20033;-48
2024/02/07 05:58:10;;;;;;;103.78;62.53;;;;;;;;;;4956587;28;20028;-51
2024/02/07 06:00:38;;;;;;;104.60;63.72;;;;;;;;;;4955350;29;20031;-49
2024/02/07 06:03:05;;;;;;;107.55;63.88;;;;;;;;;;4956291;28;20027;-48
2024/02/07 06:05:35;;;;;;;110.47;63.65;;;;;;;;;;4954890;29;20031;-47
2024/02/07 06:08:01;;;;;;;114.07;64.45;;;;;;;;;;4956488;28;20019;-48
2024/02/07 06:10:28;;;;;;;101.28;62.55;;;;;;;;;;4956362;28;20559;-48
2024/02/07 06:12:54;;;;;;;111.20;63.85;;;;;;;;;;4971610;28;20404;-48
2024/02/07 06:15:20;;;;;;;106.57;63.33;;;;;;;;;;4956297;28;20023;-49
2024/02/07 06:17:47;;;;;;;108.18;62.08;;;;;;;;;;4954965;29;20113;-51
2024/02/07 06:20:13;;;;;;;108.20;63.90;;;;;;;;;;4956306;28;20035;-48
2024/02/07 06:22:45;;;;;;;104.90;63.35;;;;;;;;;;4954739;29;20503;-53
2024/02/07 06:25:11;;;;;;;109.10;62.50;;;;;;;;;;4956006;29;20039;-50
2024/02/07 06:27:37;;;;;;;101.45;59.97;;;;;;;;;;4954834;28;20444;-49
2024/02/07 06:30:04;;;;;;;106.15;60.33;;;;;;;;;;4955771;29;20077;-50
2024/02/07 06:32:30;;;;;;;104.25;61.67;;;;;;;;;;4954424;28;20047;-50
2024/02/07 06:34:56;;;;;;;102.75;62.00;;;;;;;;;;4954841;29;20043;-51
2024/02/07 06:37:22;;;;;;;104.05;61.42;;;;;;;;;;4954786;29;20043;-48
2024/02/07 06:39:49;;;;;;;107.03;62.17;;;;;;;;;;4954753;29;20574;-48
2024/02/07 06:42:15;;;;;;;95.57;60.20;;;;;;;;;;4955761;29;20094;-51
2024/02/07 06:44:41;;;;;;;93.93;58.33;;;;;;;;;;4955882;28;20038;-52
2024/02/07 06:47:07;;;;;;;101.93;61.60;;;;;;;;;;4955516;28;20496;-49
2024/02/07 06:49:36;;;;;;;98.07;60.33;;;;;;;;;;4954507;28;20492;-53
2024/02/07 06:52:02;;;;;;;98.88;61.28;;;;;;;;;;4955802;28;20024;-49
2024/02/07 06:54:29;;;;;;;112.30;61.30;;;;;;;;;;4955686;29;20118;-48
2024/02/07 06:56:55;;;;;;;100.45;60.30;;;;;;;;;;4969988;28;20034;-52
2024/02/07 06:59:21;;;;;;;99.20;61.17;;;;;;;;;;4955492;28;20065;-48
2024/02/07 07:01:47;;;;;;;107.28;62.45;;;;;;;;;;4955480;29;20477;-52
2024/02/07 07:04:13;;;;;;;115.97;66.18;;;;;;;;;;4955171;28;20031;-52
2024/02/07 07:06:40;;;;;;;105.88;64.78;;;;;;;;;;4953878;29;20215;-48
2024/02/07 07:09:06;;;;;;;108.40;63.13;;;;;;;;;;4954338;29;20514;-51
2024/02/07 07:11:32;;;;;;;102.07;63.30;;;;;;;;;;4954247;29;20111;-48
2024/02/07 07:13:59;;;;;;;99.70;60.40;;;;;;;;;;4955421;29;20270;-50
2024/02/07 07:16:26;;;;;;;105.18;62.58;;;;;;;;;;4953922;29;20034;-50
2024/02/07 07:18:53;;;;;;;105.72;61.42;;;;;;;;;;4955096;29;20504;-53
2024/02/07 07:21:19;;;;;;;96.53;60.13;;;;;;;;;;4953530;28;20031;-49
2024/02/07 07:23:46;;;;;;;99.97;63.90;;;;;;;;;;4937982;29;20425;-49
2024/02/07 07:26:12;;;;;;;107.60;65.35;;;;;;;;;;4937761;29;20031;-51
2024/02/07 07:28:38;;;;;;;100.88;63.00;;;;;;;;;;4937909;29;20038;-51
2024/02/07 07:31:05;;;;;;;109.03;67.85;;;;;;;;;;4955010;29;20031;-50
2024/02/07 07:33:31;;;;;;;106.70;65.05;;;;;;;;;;4954519;28;20519;-49
2024/02/07 07:35:57;;;;;;;100.30;62.53;;;;;;;;;;4954922;28;20063;-48
2024/02/07 07:38:23;;;;;;;100.38;58.90;;;;;;;;;;4953565;29;20034;-48
2024/02/07 07:40:49;;;;;;;101.30;63.90;;;;;;;;;;4953613;28;20126;-52
2024/02/07 07:43:16;;;;;;;98.63;61.88;;;;;;;;;;4954710;29;20042;-48
2024/02/07 07:45:42;;;;;;;96.20;61.83;;;;;;;;;;4954493;28;20042;-48
2024/02/07 07:48:08;;;;;;;103.75;62.63;;;;;;;;;;4954721;28;20400;-53
2024/02/07 07:50:34;;;;;;;104.05;66.22;;;;;;;;;;4954279;29;20031;-49
2024/02/07 07:53:01;;;;;;;104.05;66.40;;;;;;;;;;4954492;28;20023;-51
2024/02/07 07:55:27;;;;;;;99.45;64.43;;;;;;;;;;4954476;28;20448;-48
2024/02/07 07:57:53;;;;;;;97.97;62.20;;;;;;;;;;4954601;28;20035;-52
2024/02/07 08:00:19;;;;;;;102.85;64.60;;;;;;;;;;4954548;28;20023;-48
2024/02/07 08:02:45;;;;;;;105.57;65.13;;;;;;;;;;4954452;28;20035;-49
2024/02/07 08:05:11;;;;;;;107.78;65.78;;;;;;;;;;4953092;29;20027;-49
2024/02/07 08:07:38;;;;;;;109.10;66.85;;;;;;;;;;4954236;28;20069;-48
2024/02/07 08:10:04;;;;;;;112.53;67.95;;;;;;;;;;4954313;28;20469;-48
2024/02/07 08:12:30;;;;;;;106.30;64.43;;;;;;;;;;4953903;28;20034;-48
2024/02/07 08:14:56;;;;;;;105.20;66.85;;;;;;;;;;4954176;28;20035;-48
2024/02/07 08:17:22;;;;;;;112.13;66.15;;;;;;;;;;4954093;28;20507;-48
2024/02/07 08:19:48;;;;;;;107.13;69.38;;;;;;;;;;4955034;28;20500;-49
2024/02/07 08:22:14;;;;;;;122.35;69.60;;;;;;;;;;4954073;28;20640;-51
2024/02/07 08:24:41;;;;;;;109.05;67.32;;;;;;;;;;4969125;28;20035;-49
2024/02/07 08:27:07;;;;;;;104.82;66.63;;;;;;;;;;4954226;28;20036;-52
2024/02/07 08:29:33;;;;;;;106.57;70.55;;;;;;;;;;4954117;29;20043;-50
2024/02/07 08:32:00;;;;;;;108.15;68.20;;;;;;;;;;4951894;28;20404;-53
2024/02/07 08:34:26;;;;;;;102.97;64.80;;;;;;;;;;4953593;28;20106;-48
2024/02/07 08:36:52;;;;;;;109.13;63.85;;;;;;;;;;4953926;28;20032;-49
2024/02/07 08:39:18;;;;;;;101.20;64.60;;;;;;;;;;4954041;28;20039;-49
2024/02/07 08:41:44;;;;;;;103.40;66.63;;;;;;;;;;4952730;29;20039;-51
2024/02/07 08:44:10;;;;;;;103.72;66.13;;;;;;;;;;4953640;29;20400;-48
2024/02/07 08:46:37;;;;;;;111.40;69.85;;;;;;;;;;4953505;28;20392;-49
2024/02/07 08:49:03;;;;;;;119.18;72.07;;;;;;;;;;4953750;28;20039;-48
2024/02/07 08:51:29;;;;;;;109.28;66.43;;;;;;;;;;4953870;28;20154;-49
2024/02/07 08:53:55;;;;;;;108.35;67.97;;;;;;;;;;4953728;28;20067;-49
2024/02/07 08:56:22;;;;;;;106.85;68.88;;;;;;;;;;4952264;29;20031;-48
2024/02/07 08:58:48;;;;;;;107.40;67.45;;;;;;;;;;4953470;28;20043;-48
2024/02/07 09:01:16;;;;;;;106.20;67.57;;;;;;;;;;4953549;28;20035;-48
2024/02/07 09:03:43;;;;;;;106.90;69.10;;;;;;;;;;4953767;29;20039;-52
2024/02/07 09:06:10;;;;;;;108.80;66.53;;;;;;;;;;4952932;29;20031;-50
2024/02/07 09:08:36;;;;;;;109.22;68.15;;;;;;;;;;4953671;28;20035;-50
2024/02/07 09:11:02;;;;;;;102.50;65.68;;;;;;;;;;4953895;29;20496;-48
2024/02/07 09:13:28;;;;;;;107.25;68.60;;;;;;;;;;4953063;29;20122;-48
2024/02/07 09:15:54;;;;;;;101.72;66.20;;;;;;;;;;4952685;28;20110;-52
2024/02/07 09:18:21;;;;;;;103.65;66.25;;;;;;;;;;4968424;28;20035;-48
2024/02/07 09:20:47;;;;;;;108.68;65.63;;;;;;;;;;4953519;28;20039;-50
2024/02/07 09:23:13;;;;;;;101.78;64.95;;;;;;;;;;4968396;28;20058;-51
2024/02/07 09:25:39;;;;;;;103.40;65.78;;;;;;;;;;4953420;28;20623;-51
2024/02/07 09:28:05;;;;;;;101.53;66.38;;;;;;;;;;4953518;28;20043;-48
2024/02/07 09:30:33;;;;;;;104.55;64.72;;;;;;;;;;4953829;28;20105;-48
2024/02/07 09:32:59;;;;;;;98.82;61.80;;;;;;;;;;4967640;28;20043;-49
2024/02/07 09:35:26;;;;;;;106.50;66.80;;;;;;;;;;4953343;28;20051;-49
2024/02/07 09:37:52;;;;;;;100.95;65.97;;;;;;;;;;4953319;28;20118;-48
2024/02/07 09:40:19;;;;;;;105.78;63.30;;;;;;;;;;4953351;29;20043;-49
2024/02/07 09:42:45;;;;;;;104.70;65.00;;;;;;;;;;4968055;28;20039;-50
2024/02/07 09:45:13;;;;;;;97.47;63.00;;;;;;;;;;4937139;29;20493;-49
2024/02/07 09:47:50;;;;;;;112.70;67.15;;;;;;;;;;4957142;28;20039;-48
2024/02/07 09:50:17;;;;;;;101.10;61.97;;;;;;;;;;4971766;28;20396;-48
2024/02/07 09:52:44;;;;;;;104.68;61.45;;;;;;;;;;4955688;29;20023;-48
2024/02/07 09:55:10;;;;;;;101.05;62.50;;;;;;;;;;4955323;29;20031;-49
2024/02/07 09:57:37;;;;;;;105.55;63.42;;;;;;;;;;4957109;29;20047;-50
2024/02/07 10:00:03;;;;;;;98.53;63.40;;;;;;;;;;4955361;29;20027;-48
2024/02/07 10:02:31;;;;;;;86.77;58.27;;;;;;;;;;4956888;28;20031;-52
2024/02/07 10:04:59;;;;;;;93.97;58.67;;;;;;;;;;4955224;28;20038;-48
2024/02/07 10:07:25;;;;;;;97.35;61.50;;;;;;;;;;4956246;29;20512;-48
2024/02/07 10:09:52;;;;;;;95.93;58.72;;;;;;;;;;4955309;29;20031;-48
2024/02/07 10:12:20;;;;;;;91.57;58.30;;;;;;;;;;4956369;29;20031;-49
2024/02/07 10:14:48;;;;;;;91.03;57.45;;;;;;;;;;4956178;28;20039;-50
2024/02/07 10:17:14;;;;;;;90.47;55.55;;;;;;;;;;4956154;29;20138;-48
2024/02/07 10:19:40;;;;;;;94.15;57.70;;;;;;;;;;4955116;29;20039;-48
2024/02/07 10:22:16;;;;;;;94.03;58.78;;;;;;;;;;4956245;28;20035;-48
2024/02/07 10:24:43;;;;;;;89.45;56.08;;;;;;;;;;4954934;29;20091;-48
2024/02/07 10:27:10;;;;;;;91.72;56.22;;;;;;;;;;4955967;29;20019;-51
2024/02/07 10:29:36;;;;;;;88.47;55.13;;;;;;;;;;4956095;28;20027;-48
2024/02/07 10:32:04;;;;;;;89.53;54.25;;;;;;;;;;4981583;22;20034;-47
2024/02/07 10:34:33;;;;;;;84.63;56.10;;;;;;;;;;4975009;28;20419;-46
2024/02/07 10:37:00;;;;;;;79.65;53.75;;;;;;;;;;4974617;28;20031;-47
2024/02/07 10:39:27;;;;;;;86.30;52.67;;;;;;;;;;4975123;28;20553;-47
2024/02/07 10:41:57;;;;;;;79.50;52.97;;;;;;;;;;4974123;28;20379;-48
2024/02/07 10:44:24;;;;;;;85.78;56.50;;;;;;;;;;4955800;29;20042;-47
2024/02/07 10:46:58;;;;;;;84.85;52.55;;;;;;;;;;4955752;28;20436;-47
2024/02/07 10:49:24;;;;;;;81.45;51.45;;;;;;;;;;4954829;29;20396;-47
2024/02/07 10:51:50;;;;;;;88.78;58.92;;;;;;;;;;4955603;28;20058;-49
2024/02/07 10:54:16;;;;;;;93.35;58.10;;;;;;;;;;4955581;29;20036;-48
2024/02/07 10:56:43;;;;;;;86.30;57.90;;;;;;;;;;4954576;28;20035;-47
2024/02/07 10:59:09;;;;;;;;;;;;;;;;;;4955900;29;20023;-46
2024/02/07 11:01:36;;;;;;;81.50;52.45;;;;;;;;;;4955569;28;19957;-47
2024/02/07 11:04:02;;;;;;;79.93;48.90;;;;;;;;;;4955421;28;20096;-46
2024/02/07 11:06:28;;;;;;;81.85;53.30;;;;;;;;;;4955230;28;20060;-46
2024/02/07 11:08:59;;;;;;;86.13;53.97;;;;;;;;;;4955496;29;20038;-48
2024/02/07 11:11:25;;;;;;;79.82;51.22;;;;;;;;;;4955337;29;20165;-47
2024/02/07 11:13:57;;;;;;;81.30;54.22;;;;;;;;;;4955494;28;20404;-46
2024/02/07 11:16:23;;;;;;;96.00;54.95;;;;;;;;;;4953846;29;20537;-47
2024/02/07 11:18:50;;;;;;;81.03;50.92;;;;;;;;;;4955001;29;20119;-45
2024/02/07 11:21:21;;;;;;;85.07;52.25;;;;;;;;;;4965216;28;20051;-47
2024/02/07 11:23:48;;;;;;;81.93;52.42;;;;;;;;;;4957092;28;20039;-49
2024/02/07 11:26:14;;;;;;;80.72;52.13;;;;;;;;;;4967881;28;20053;-48
2024/02/07 11:28:41;;;;;;;77.43;51.40;;;;;;;;;;4972939;28;20456;-47
2024/02/07 11:31:08;;;;;;;72.47;46.75;;;;;;;;;;4971525;28;20113;-48
2024/02/07 11:33:37;;;;;;;71.90;45.22;;;;;;;;;;4963045;28;20039;-49
2024/02/07 11:36:21;;;;;;;72.15;47.40;;;;;;;;;;4964905;28;20451;-47
2024/02/07 11:38:48;;;;;;;74.30;50.53;;;;;;;;;;4957271;28;20045;-48
2024/02/07 11:41:19;;;;;;;80.72;50.05;;;;;;;;;;4956966;28;20488;-49
2024/02/07 11:43:46;;;;;;;63.05;44.17;;;;;;;;;;4960661;28;20027;-48
2024/02/07 11:46:12;;;;;;;69.47;47.22;;;;;;;;;;4958563;28;20447;-48
2024/02/07 11:48:42;;;;;;;68.23;46.37;;;;;;;;;;4955749;28;20035;-46
2024/02/07 11:51:09;;;;;;;72.38;45.05;;;;;;;;;;4970814;28;20447;-48
2024/02/07 11:53:35;;;;;;;;;;;;;;;;;;4973693;28;20078;-48
2024/02/07 11:56:08;;;;;;;68.32;44.30;;;;;;;;;;4973784;28;19910;-47
2024/02/07 11:58:35;;;;;;;62.15;39.35;;;;;;;;;;4955615;28;20081;-48
2024/02/07 12:01:01;;;;;;;62.33;38.33;;;;;;;;;;4970064;28;20026;-48
2024/02/07 12:03:27;;;;;;;50.07;32.57;;;;;;;;;;4972429;28;20053;-47
2024/02/07 12:05:53;;;;;;;53.87;34.80;;;;;;;;;;4970417;28;20747;-47
2024/02/07 12:08:20;;;;;;;48.58;31.52;;;;;;;;;;4953049;28;20151;-47
2024/02/07 12:10:46;;;;;;;58.25;34.03;;;;;;;;;;4955690;28;20035;-50
2024/02/07 12:13:13;;;;;;;46.40;31.93;;;;;;;;;;4972270;28;20114;-48
2024/02/07 12:15:40;;;;;;;48.70;32.50;;;;;;;;;;4970613;28;20023;-47
2024/02/07 12:18:06;;;;;;;;;;;;;;;;;;4968266;28;20027;-49
2024/02/07 12:20:32;;;;;;;46.60;29.60;;;;;;;;;;4959211;28;19917;-47
2024/02/07 12:23:01;;;;;;;43.60;27.23;;;;;;;;;;4957168;28;20031;-47
2024/02/07 12:25:28;;;;;;;48.53;31.98;;;;;;;;;;4960778;28;20031;-48
2024/02/07 12:27:54;;;;;;;50.88;29.40;;;;;;;;;;4952705;28;20028;-48
2024/02/07 12:30:21;;;;;;;44.78;29.85;;;;;;;;;;4954165;28;20023;-47
2024/02/07 12:32:47;;;;;;;51.25;31.20;;;;;;;;;;4962812;28;20472;-47
2024/02/07 12:35:13;;;;;;;48.57;29.30;;;;;;;;;;4972872;28;20507;-47
2024/02/07 12:37:40;;;;;;;50.03;29.57;;;;;;;;;;4972107;28;20035;-47
2024/02/07 12:40:15;;;;;;;47.17;30.55;;;;;;;;;;4962756;28;20054;-48
2024/02/07 12:42:43;;;;;;;47.55;30.55;;;;;;;;;;4956978;28;20120;-52
2024/02/07 12:45:13;;;;;;;51.10;31.00;;;;;;;;;;4968178;28;20082;-48
2024/02/07 12:47:39;;;;;;;43.00;30.48;;;;;;;;;;4968723;28;20034;-48
2024/02/07 12:50:06;;;;;;;52.53;30.58;;;;;;;;;;4972892;28;20474;-50
2024/02/07 12:52:32;;;;;;;40.10;27.90;;;;;;;;;;4971460;28;20030;-50
2024/02/07 12:55:01;;;;;;;49.90;26.83;;;;;;;;;;4973015;28;20034;-47
2024/02/07 12:57:27;;;;;;;43.78;28.15;;;;;;;;;;4960451;28;20043;-48
2024/02/07 12:59:55;;;;;;;44.88;25.88;;;;;;;;;;4971404;28;20407;-47
2024/02/07 13:02:21;;;;;;;41.28;24.85;;;;;;;;;;4953317;28;20463;-46
2024/02/07 13:04:48;;;;;;;29.55;20.73;;;;;;;;;;4966895;28;20122;-49
2024/02/07 13:07:15;;;;;;;41.28;23.00;;;;;;;;;;4960034;28;20034;-47
2024/02/07 13:09:42;;;;;;;;;;;;;;;;;;4966655;28;20070;-49
2024/02/07 13:12:09;;;;;;;32.13;22.13;;;;;;;;;;4964140;28;19952;-52
2024/02/07 13:14:38;;;;;;;36.17;23.80;;;;;;;;;;4954023;28;20035;-48
2024/02/07 13:17:04;;;;;;;36.35;23.33;;;;;;;;;;4960401;28;20533;-50
2024/02/07 13:19:30;;;;;;;35.58;22.77;;;;;;;;;;4957301;28;20054;-48
2024/02/07 13:21:56;;;;;;;38.17;24.00;;;;;;;;;;4975585;28;20468;-47
2024/02/07 13:24:23;;;;;;;38.50;23.83;;;;;;;;;;4965585;28;20018;-46
2024/02/07 13:26:52;;;;;;;39.13;22.45;;;;;;;;;;4966469;28;20110;-51
2024/02/07 13:29:20;;;;;;;38.30;21.33;;;;;;;;;;4958347;28;20054;-47
2024/02/07 13:31:46;;;;;;;37.72;21.85;;;;;;;;;;4968506;28;20593;-49
2024/02/07 13:34:13;;;;;;;31.80;19.23;;;;;;;;;;4976427;28;20399;-50
2024/02/07 13:36:40;;;;;;;36.70;21.70;;;;;;;;;;4976292;28;20026;-50
2024/02/07 13:39:06;;;;;;;29.57;20.03;;;;;;;;;;4976184;28;20109;-49
2024/02/07 13:41:33;;;;;;;30.58;18.95;;;;;;;;;;4976118;28;20026;-48
2024/02/07 13:43:59;;;;;;;35.20;19.93;;;;;;;;;;4975917;28;20031;-52
2024/02/07 13:46:25;;;;;;;30.37;20.03;;;;;;;;;;4974716;28;20328;-49
2024/02/07 13:48:58;;;;;;;28.67;18.92;;;;;;;;;;4974743;28;20270;-49
2024/02/07 13:51:27;;;;;;;32.08;20.55;;;;;;;;;;4976064;28;20070;-47
2024/02/07 13:53:53;;;;;;;35.72;22.35;;;;;;;;;;4976012;28;20034;-49
2024/02/07 13:56:20;;;;;;;34.67;22.13;;;;;;;;;;4975854;28;20034;-48
2024/02/07 13:58:46;;;;;;;36.47;23.58;;;;;;;;;;4975832;28;20030;-47
2024/02/07 14:01:12;;;;;;;38.60;24.00;;;;;;;;;;4975910;28;20029;-48
2024/02/07 14:03:39;;;;;;;40.43;23.57;;;;;;;;;;4975931;28;20382;-52
2024/02/07 14:06:06;;;;;;;35.67;24.48;;;;;;;;;;4975691;28;20023;-47
2024/02/07 14:08:32;;;;;;;;;;;;;;;;;;4976197;28;20030;-50
2024/02/07 14:10:58;;;;;;;42.10;25.63;;;;;;;;;;4975785;28;20001;-47
2024/02/07 14:13:25;;;;;;;39.63;25.10;;;;;;;;;;4974428;28;20031;-48
2024/02/07 14:15:52;;;;;;;37.35;25.00;;;;;;;;;;4975469;28;20262;-51
2024/02/07 14:18:18;;;;;;;39.05;22.92;;;;;;;;;;4975744;28;20034;-47
2024/02/07 14:20:44;;;;;;;36.08;21.88;;;;;;;;;;4975666;28;20035;-47
2024/02/07 14:23:11;;;;;;;33.23;20.07;;;;;;;;;;4974204;28;20059;-48
2024/02/07 14:25:38;;;;;;;37.05;21.67;;;;;;;;;;4965260;28;20030;-46
2024/02/07 14:28:04;;;;;;;35.10;22.03;;;;;;;;;;4968660;28;20027;-48
2024/02/07 14:30:30;;;;;;;43.95;21.75;;;;;;;;;;4964112;28;20391;-48
2024/02/07 14:32:56;;;;;;;39.17;21.80;;;;;;;;;;4968152;28;20042;-48
2024/02/07 14:35:23;;;;;;;35.35;21.95;;;;;;;;;;4958977;28;20396;-48
2024/02/07 14:37:49;;;;;;;35.50;22.55;;;;;;;;;;4959423;28;20035;-47
2024/02/07 14:40:17;;;;;;;40.50;23.27;;;;;;;;;;4954396;28;20533;-47
2024/02/07 14:42:43;;;;;;;37.10;21.27;;;;;;;;;;4955938;28;20277;-47
2024/02/07 14:45:11;;;;;;;36.40;23.67;;;;;;;;;;4957608;28;20031;-48
2024/02/07 14:47:38;;;;;;;40.10;18.88;;;;;;;;;;4973351;28;20308;-47
2024/02/07 14:50:04;;;;;;;32.57;21.23;;;;;;;;;;4961119;28;20445;-48
2024/02/07 14:52:30;;;;;;;32.53;20.23;;;;;;;;;;4955560;28;20054;-49
2024/02/07 14:54:56;;;;;;;27.58;16.45;;;;;;;;;;4970293;28;20508;-47
2024/02/07 14:57:23;;;;;;;29.48;16.42;;;;;;;;;;4970070;28;20555;-48
2024/02/07 14:59:49;;;;;;;22.33;13.73;;;;;;;;;;4955429;28;20035;-47
2024/02/07 15:02:15;;;;;;;25.53;15.73;;;;;;;;;;4966631;28;20023;-48
2024/02/07 15:04:41;;;;;;;23.00;14.57;;;;;;;;;;4970793;28;20473;-47
2024/02/07 15:07:07;;;;;;;25.67;14.30;;;;;;;;;;4954782;28;20049;-47
2024/02/07 15:09:34;;;;;;;24.77;14.70;;;;;;;;;;4958002;28;20030;-48
2024/02/07 15:12:00;;;;;;;21.15;12.85;;;;;;;;;;4962851;28;20117;-47
2024/02/07 15:14:26;;;;;;;21.23;13.90;;;;;;;;;;4956909;28;20087;-47
2024/02/07 15:16:52;;;;;;;20.48;12.52;;;;;;;;;;4940471;28;20086;-49
2024/02/07 15:19:19;;;;;;;24.30;13.40;;;;;;;;;;4962352;28;20023;-48